»·PEaware :: WAT169 KSNA-KSLC

WAT169 :: KSNA-KSLC

FLIGHT INFORMATION

Flight Status: Arrived
Operator:
Walker Air Transport
More flights by this operator :: More flights under this callsign
Pilot: Marty P. (27464)
Aircraft: BOEING 737-800
(B738)
More flights by this aircraft type
Origin: KSNA John Wayne-Orange Co
United States
Destination: KSLC Salt Lake City Intl
United States
More flights between these airports :: More routes between these airports
Route: FINZZ3 BEALE Q842 WINEN MLF DELTA5
File this flight plan on PilotEdge
Remarks:
Altitude:
(Current/Filed)
39,000ft
Speed:
(Current/Filed)
500kts
Departed: 13-Jan-21 05:58 PM
Arrived: 13-Jan-21 07:22 PM
Distance/Time
Traveled:
511nm/1:23
Distance/Time
To Go:
Arrived

Flight Plot

Page will automatically refresh every two minutes.

Flight plan parsing failed; only flown route is shown


Map Options




Map Legend


Flown Route
Filed Route
Departure Airport
Arrival Airport
Navaid (VOR, NDB)
Fix

Horizontal Profiles

Position Reports

Time Latitude Longitude Heading Altitude Ground
Speed
13-Jan-21 17:34 33.675005 -117.865072 118 67ft 0kts
13-Jan-21 17:36 33.675005 -117.865072 118 67ft 0kts
13-Jan-21 17:37 33.675005 -117.865072 118 66ft 0kts
13-Jan-21 17:38 33.675005 -117.865072 118 66ft 0kts
13-Jan-21 17:39 33.675005 -117.865072 118 66ft 0kts
13-Jan-21 17:40 33.675005 -117.865072 118 66ft 0kts
13-Jan-21 17:41 33.675005 -117.865072 118 66ft 0kts
13-Jan-21 17:42 33.675005 -117.865072 118 66ft 0kts
13-Jan-21 17:43 33.675005 -117.865072 118 66ft 0kts
13-Jan-21 17:44 33.675005 -117.865072 118 66ft 0kts
13-Jan-21 17:45 33.675005 -117.865072 118 66ft 0kts
13-Jan-21 17:46 33.675005 -117.865072 118 66ft 0kts
13-Jan-21 17:47 33.675005 -117.865072 118 66ft 0kts
13-Jan-21 17:48 33.675005 -117.865073 118 66ft 0kts
13-Jan-21 17:49 33.675106 -117.865300 118 66ft 0kts
13-Jan-21 17:50 33.675013 -117.865903 35 66ft 2kts
13-Jan-21 17:51 33.674921 -117.865965 27 66ft 0kts
13-Jan-21 17:52 33.674921 -117.865965 27 66ft 0kts
13-Jan-21 17:53 33.674921 -117.865965 27 66ft 0kts
13-Jan-21 17:53 33.676011 -117.865266 27 66ft 14kts
13-Jan-21 17:55 33.679337 -117.863133 26 66ft 11kts
13-Jan-21 17:55 33.680671 -117.863122 298 66ft 0kts
13-Jan-21 17:57 33.681018 -117.865448 207 66ft 16kts
13-Jan-21 17:57 33.657825 -117.881786 214 488ft 155kts
13-Jan-21 17:58 33.607106 -117.894340 185 2719ft 232kts
13-Jan-21 17:59 33.546623 -117.925491 223 6876ft 255kts
13-Jan-21 18:00 33.505828 -117.997058 266 10586ft 274kts
13-Jan-21 18:01 33.544838 -118.083608 325 12396ft 338kts
13-Jan-21 18:02 33.635567 -118.101296 16 15662ft 355kts
13-Jan-21 18:03 33.727384 -118.049580 22 18428ft 373kts
13-Jan-21 18:04 33.822745 -117.993794 21 20794ft 390kts
13-Jan-21 18:05 33.919182 -117.928755 30 22890ft 409kts
13-Jan-21 18:06 34.012715 -117.846622 31 24761ft 423kts
13-Jan-21 18:07 34.101758 -117.750314 42 26485ft 441kts
13-Jan-21 18:08 34.182800 -117.636793 45 28095ft 452kts
13-Jan-21 18:09 34.263763 -117.518195 45 29535ft 462kts
13-Jan-21 18:10 34.344806 -117.397631 45 30794ft 472kts
13-Jan-21 18:11 34.427974 -117.273102 46 32150ft 475kts
13-Jan-21 18:12 34.510829 -117.148749 46 33543ft 475kts
13-Jan-21 18:13 34.594503 -117.024897 44 34819ft 473kts
13-Jan-21 18:14 34.678405 -116.902702 44 36004ft 472kts
13-Jan-21 18:15 34.762311 -116.780140 44 36993ft 472kts
13-Jan-21 18:16 34.846045 -116.657404 43 37840ft 473kts
13-Jan-21 18:17 34.933268 -116.538615 40 38591ft 471kts
13-Jan-21 18:18 35.021851 -116.420531 40 39240ft 472kts
13-Jan-21 18:19 35.110754 -116.301470 40 39321ft 484kts
13-Jan-21 18:20 35.202919 -116.177499 40 39320ft 495kts
13-Jan-21 18:21 35.295784 -116.052044 40 39320ft 502kts
13-Jan-21 18:22 35.389477 -115.924986 40 39320ft 506kts
13-Jan-21 18:23 35.484046 -115.796261 40 39315ft 509kts
13-Jan-21 18:24 35.578720 -115.666906 40 39311ft 511kts
13-Jan-21 18:25 35.673486 -115.536931 40 39310ft 512kts
13-Jan-21 18:26 35.767904 -115.405429 41 39310ft 513kts
13-Jan-21 18:27 35.861495 -115.275210 41 39310ft 512kts
13-Jan-21 18:28 35.955855 -115.144087 41 39309ft 511kts
13-Jan-21 18:29 36.050104 -115.012727 41 39296ft 512kts
13-Jan-21 18:30 36.144730 -114.880437 40 39285ft 514kts
13-Jan-21 18:31 36.254836 -114.778612 20 39285ft 492kts
13-Jan-21 18:32 36.375334 -114.698524 20 39275ft 492kts
13-Jan-21 18:33 36.495864 -114.618444 20 39274ft 493kts
13-Jan-21 18:34 36.616805 -114.537823 20 39274ft 493kts
13-Jan-21 18:35 36.736241 -114.454878 23 39276ft 498kts
13-Jan-21 18:36 36.853509 -114.362896 23 39290ft 498kts
13-Jan-21 18:37 36.970530 -114.270916 24 39304ft 497kts
13-Jan-21 18:38 37.087189 -114.178956 23 39311ft 496kts
13-Jan-21 18:39 37.197287 -114.091870 23 39311ft 497kts
13-Jan-21 18:40 37.293424 -114.015579 23 39336ft 496kts
13-Jan-21 18:41 37.409658 -113.923029 23 39338ft 497kts
13-Jan-21 18:42 37.526270 -113.829831 23 39338ft 497kts
13-Jan-21 18:43 37.643011 -113.736180 23 39338ft 497kts
13-Jan-21 18:44 37.759535 -113.642349 23 39338ft 498kts
13-Jan-21 18:45 37.875965 -113.548239 23 39332ft 498kts
13-Jan-21 18:46 37.986080 -113.438449 32 39329ft 510kts
13-Jan-21 18:47 38.091683 -113.320139 32 39329ft 510kts
13-Jan-21 18:48 38.196626 -113.201166 33 39329ft 510kts
13-Jan-21 18:49 38.302063 -113.080866 33 39323ft 510kts
13-Jan-21 18:50 38.416236 -112.984188 14 39314ft 484kts
13-Jan-21 18:51 38.540010 -112.917627 13 39312ft 480kts
13-Jan-21 18:52 38.658064 -112.854356 13 37589ft 452kts
13-Jan-21 18:53 38.772055 -112.793306 13 35098ft 442kts
13-Jan-21 18:54 38.885659 -112.732178 13 32598ft 447kts
13-Jan-21 18:55 39.000617 -112.669921 13 30098ft 455kts
13-Jan-21 18:56 39.116440 -112.607087 14 27605ft 458kts
13-Jan-21 18:57 39.232926 -112.543635 14 24687ft 446kts
13-Jan-21 18:58 39.347257 -112.491727 6 24328ft 437kts
13-Jan-21 18:59 39.462794 -112.452689 5 24330ft 432kts
13-Jan-21 19:00 39.579465 -112.413778 5 23463ft 430kts
13-Jan-21 19:01 39.693388 -112.375706 5 21464ft 420kts
13-Jan-21 19:02 39.805681 -112.338136 6 19453ft 414kts
13-Jan-21 19:03 39.915864 -112.301053 6 17448ft 406kts
13-Jan-21 19:04 40.018547 -112.266300 5 16998ft 357kts
13-Jan-21 19:05 40.114986 -112.233768 6 16642ft 367kts
13-Jan-21 19:06 40.211844 -112.200837 7 14186ft 355kts
13-Jan-21 19:07 40.299993 -112.170793 6 13968ft 314kts
13-Jan-21 19:08 40.385069 -112.141760 7 12970ft 293kts
13-Jan-21 19:09 40.458365 -112.116828 6 13006ft 272kts
13-Jan-21 19:10 40.532090 -112.091769 7 12515ft 279kts
13-Jan-21 19:11 40.605947 -112.079792 356 11988ft 259kts
13-Jan-21 19:12 40.677060 -112.083022 349 11286ft 263kts
13-Jan-21 19:13 40.747356 -112.091404 351 8987ft 245kts
13-Jan-21 19:14 40.810895 -112.098930 351 8983ft 226kts
13-Jan-21 19:15 40.874365 -112.106480 351 8270ft 236kts
13-Jan-21 19:16 40.934651 -112.092968 59 6948ft 213kts
13-Jan-21 19:17 40.942240 -112.018839 102 6917ft 206kts
13-Jan-21 19:18 40.897735 -111.987363 176 6041ft 194kts
13-Jan-21 19:19 40.849386 -111.981816 175 5090ft 165kts
13-Jan-21 19:20 40.804250 -111.976662 174 4240ft 155kts
13-Jan-21 19:21 40.790428 -111.976340 203 4226ft 0kts
13-Jan-21 19:23 40.790145 -111.976794 257 4226ft 7kts
13-Jan-21 19:24 40.789254 -111.979444 186 4226ft 6kts
13-Jan-21 19:25 40.788307 -111.979245 80 4226ft 0kts
13-Jan-21 19:26 40.788308 -111.979242 80 4226ft 0kts
13-Jan-21 19:27 40.788308 -111.979242 80 4226ft 0kts
13-Jan-21 19:28 40.788308 -111.979238 80 4226ft 0kts
13-Jan-21 19:29 40.788310 -111.979225 80 4226ft 0kts

Navigation Log

Ident Type
Flight plan parsing failed, navigation log unavailable